sensor_id;sensor_type;location;lat;lon;timestamp;pressure;altitude;pressure_sealevel;temperature;humidity
21706;BME280;11014;53.076;18.208;2023-04-29T00:01:33;101052.97;;;13.08;44.37
21706;BME280;11014;53.076;18.208;2023-04-29T00:04:01;101047.19;;;13.04;44.17
21706;BME280;11014;53.076;18.208;2023-04-29T00:06:32;101042.84;;;13.03;44.43
21706;BME280;11014;53.076;18.208;2023-04-29T00:09:01;101039.56;;;13.01;44.41
21706;BME280;11014;53.076;18.208;2023-04-29T00:11:32;101043.91;;;13.02;44.39
21706;BME280;11014;53.076;18.208;2023-04-29T00:14:00;101051.19;;;13.02;44.52
21706;BME280;11014;53.076;18.208;2023-04-29T00:16:31;101041.78;;;13.04;44.50
21706;BME280;11014;53.076;18.208;2023-04-29T00:19:00;101054.84;;;13.07;44.65
21706;BME280;11014;53.076;18.208;2023-04-29T00:21:46;101044.88;;;13.08;44.30
21706;BME280;11014;53.076;18.208;2023-04-29T00:24:15;101036.97;;;13.06;44.51
21706;BME280;11014;53.076;18.208;2023-04-29T00:26:44;101040.75;;;13.05;44.84
21706;BME280;11014;53.076;18.208;2023-04-29T00:29:15;101027.72;;;13.02;44.74
21706;BME280;11014;53.076;18.208;2023-04-29T00:31:48;101031.47;;;13.01;44.93
21706;BME280;11014;53.076;18.208;2023-04-29T00:34:18;101025.97;;;12.96;44.83
21706;BME280;11014;53.076;18.208;2023-04-29T00:36:49;101024.94;;;12.97;44.76
21706;BME280;11014;53.076;18.208;2023-04-29T00:39:21;101016.00;;;12.97;44.93
21706;BME280;11014;53.076;18.208;2023-04-29T00:42:01;101014.16;;;12.97;44.83
21706;BME280;11014;53.076;18.208;2023-04-29T00:44:34;101018.94;;;12.95;45.15
21706;BME280;11014;53.076;18.208;2023-04-29T00:47:03;101018.59;;;12.92;44.78
21706;BME280;11014;53.076;18.208;2023-04-29T00:49:38;101010.97;;;13.12;44.59
21706;BME280;11014;53.076;18.208;2023-04-29T00:52:10;101014.00;;;12.92;44.91
21706;BME280;11014;53.076;18.208;2023-04-29T00:54:42;101019.66;;;13.02;44.39
21706;BME280;11014;53.076;18.208;2023-04-29T00:57:13;101021.88;;;12.82;44.99
21706;BME280;11014;53.076;18.208;2023-04-29T00:59:47;101010.72;;;12.79;45.38
21706;BME280;11014;53.076;18.208;2023-04-29T01:02:17;101018.03;;;12.78;45.52
21706;BME280;11014;53.076;18.208;2023-04-29T01:04:56;101009.81;;;12.73;45.26
21706;BME280;11014;53.076;18.208;2023-04-29T01:07:55;101013.78;;;12.82;45.68
21706;BME280;11014;53.076;18.208;2023-04-29T01:10:28;101006.63;;;12.76;45.45
21706;BME280;11014;53.076;18.208;2023-04-29T01:13:08;101006.88;;;12.75;45.64
21706;BME280;11014;53.076;18.208;2023-04-29T01:16:17;101013.44;;;12.79;45.57
21706;BME280;11014;53.076;18.208;2023-04-29T01:19:15;101008.19;;;12.72;45.63
21706;BME280;11014;53.076;18.208;2023-04-29T01:21:46;101005.69;;;12.71;45.69
21706;BME280;11014;53.076;18.208;2023-04-29T01:24:16;101014.63;;;12.71;45.50
21706;BME280;11014;53.076;18.208;2023-04-29T01:26:58;101005.69;;;12.71;45.79
21706;BME280;11014;53.076;18.208;2023-04-29T01:30:01;101008.66;;;12.69;45.89
21706;BME280;11014;53.076;18.208;2023-04-29T01:32:52;101006.53;;;12.71;45.92
21706;BME280;11014;53.076;18.208;2023-04-29T01:38:41;101004.66;;;12.72;45.92
21706;BME280;11014;53.076;18.208;2023-04-29T01:41:15;101005.00;;;12.64;45.99
21706;BME280;11014;53.076;18.208;2023-04-29T01:43:50;101003.03;;;12.59;45.97
21706;BME280;11014;53.076;18.208;2023-04-29T01:46:25;101012.16;;;12.58;45.84
21706;BME280;11014;53.076;18.208;2023-04-29T01:48:57;100994.34;;;12.57;46.15
21706;BME280;11014;53.076;18.208;2023-04-29T01:51:26;100998.09;;;12.56;46.03
21706;BME280;11014;53.076;18.208;2023-04-29T01:53:57;101002.88;;;12.54;46.24
21706;BME280;11014;53.076;18.208;2023-04-29T01:56:27;101007.47;;;12.54;46.19
21706;BME280;11014;53.076;18.208;2023-04-29T01:59:24;101003.22;;;12.46;46.23
21706;BME280;11014;53.076;18.208;2023-04-29T02:01:54;100998.34;;;12.43;46.25
21706;BME280;11014;53.076;18.208;2023-04-29T02:04:27;100997.72;;;12.41;46.30
21706;BME280;11014;53.076;18.208;2023-04-29T02:06:57;100995.50;;;12.38;46.67
21706;BME280;11014;53.076;18.208;2023-04-29T02:09:30;100989.78;;;12.34;46.33
21706;BME280;11014;53.076;18.208;2023-04-29T02:12:07;100990.00;;;12.33;46.31
21706;BME280;11014;53.076;18.208;2023-04-29T02:14:35;100986.97;;;12.29;46.86
21706;BME280;11014;53.076;18.208;2023-04-29T02:17:06;100989.06;;;12.27;46.52
21706;BME280;11014;53.076;18.208;2023-04-29T02:19:38;100984.50;;;12.28;46.69
21706;BME280;11014;53.076;18.208;2023-04-29T02:22:07;100989.88;;;12.28;46.69
21706;BME280;11014;53.076;18.208;2023-04-29T02:24:37;100984.94;;;12.25;46.74
21706;BME280;11014;53.076;18.208;2023-04-29T02:27:07;100988.22;;;12.27;46.99
21706;BME280;11014;53.076;18.208;2023-04-29T02:29:37;100978.97;;;12.23;46.83
21706;BME280;11014;53.076;18.208;2023-04-29T02:32:06;100980.03;;;12.22;46.86
21706;BME280;11014;53.076;18.208;2023-04-29T02:34:34;100972.56;;;12.24;47.04
21706;BME280;11014;53.076;18.208;2023-04-29T02:37:03;100974.19;;;12.25;47.03
21706;BME280;11014;53.076;18.208;2023-04-29T02:39:31;100976.66;;;12.26;47.45
21706;BME280;11014;53.076;18.208;2023-04-29T02:42:00;100975.84;;;12.26;47.24
21706;BME280;11014;53.076;18.208;2023-04-29T02:44:29;100968.22;;;12.23;47.13
21706;BME280;11014;53.076;18.208;2023-04-29T02:46:59;100968.78;;;12.25;47.36
21706;BME280;11014;53.076;18.208;2023-04-29T02:49:28;100967.84;;;12.19;47.37
21706;BME280;11014;53.076;18.208;2023-04-29T02:51:57;100963.03;;;12.21;47.38
21706;BME280;11014;53.076;18.208;2023-04-29T02:54:26;100963.28;;;12.20;47.51
21706;BME280;11014;53.076;18.208;2023-04-29T02:56:54;100964.09;;;12.20;47.33
21706;BME280;11014;53.076;18.208;2023-04-29T02:59:23;100958.94;;;12.19;47.57
21706;BME280;11014;53.076;18.208;2023-04-29T03:01:52;100965.53;;;12.23;47.44
21706;BME280;11014;53.076;18.208;2023-04-29T03:04:23;100964.84;;;12.51;46.62
21706;BME280;11014;53.076;18.208;2023-04-29T03:06:56;100966.22;;;12.30;46.73
21706;BME280;11014;53.076;18.208;2023-04-29T03:09:27;100963.41;;;12.25;47.10
21706;BME280;11014;53.076;18.208;2023-04-29T03:11:56;100963.03;;;12.21;47.29
21706;BME280;11014;53.076;18.208;2023-04-29T03:14:24;100965.97;;;12.20;47.85
21706;BME280;11014;53.076;18.208;2023-04-29T03:16:53;100961.50;;;12.14;47.90
21706;BME280;11014;53.076;18.208;2023-04-29T03:19:42;100964.56;;;12.17;48.48
21706;BME280;11014;53.076;18.208;2023-04-29T03:22:11;100961.97;;;12.11;47.95
21706;BME280;11014;53.076;18.208;2023-04-29T03:24:42;100959.06;;;12.12;48.20
21706;BME280;11014;53.076;18.208;2023-04-29T03:27:13;100954.97;;;12.10;48.16
21706;BME280;11014;53.076;18.208;2023-04-29T03:29:42;100961.41;;;12.09;48.14
21706;BME280;11014;53.076;18.208;2023-04-29T03:32:11;100965.75;;;12.10;48.09
21706;BME280;11014;53.076;18.208;2023-04-29T03:34:40;100960.34;;;12.10;48.05
21706;BME280;11014;53.076;18.208;2023-04-29T03:37:29;100969.00;;;12.12;48.20
21706;BME280;11014;53.076;18.208;2023-04-29T03:40:17;100973.94;;;12.15;48.40
21706;BME280;11014;53.076;18.208;2023-04-29T03:42:46;100966.91;;;12.14;48.44
21706;BME280;11014;53.076;18.208;2023-04-29T03:45:15;100962.81;;;12.11;48.79
21706;BME280;11014;53.076;18.208;2023-04-29T03:47:45;100958.50;;;12.10;48.80
21706;BME280;11014;53.076;18.208;2023-04-29T03:50:13;100962.81;;;12.11;48.76
21706;BME280;11014;53.076;18.208;2023-04-29T03:52:42;100959.91;;;12.13;48.64
21706;BME280;11014;53.076;18.208;2023-04-29T03:55:15;100972.28;;;12.14;48.64
21706;BME280;11014;53.076;18.208;2023-04-29T03:57:45;100972.41;;;12.19;48.83
21706;BME280;11014;53.076;18.208;2023-04-29T04:00:16;100963.03;;;12.21;48.48
21706;BME280;11014;53.076;18.208;2023-04-29T04:02:47;100970.44;;;12.26;48.62
21706;BME280;11014;53.076;18.208;2023-04-29T04:05:16;100965.41;;;12.29;48.73
21706;BME280;11014;53.076;18.208;2023-04-29T04:07:53;100963.63;;;12.35;48.66
21706;BME280;11014;53.076;18.208;2023-04-29T04:10:33;100961.31;;;12.38;48.99
21706;BME280;11014;53.076;18.208;2023-04-29T04:13:07;100962.72;;;12.41;49.01
21706;BME280;11014;53.076;18.208;2023-04-29T04:15:37;100958.97;;;12.42;49.11
21706;BME280;11014;53.076;18.208;2023-04-29T04:18:06;100964.34;;;12.42;48.93
21706;BME280;11014;53.076;18.208;2023-04-29T04:20:36;100961.78;;;12.47;48.96
21706;BME280;11014;53.076;18.208;2023-04-29T04:23:04;100959.19;;;12.52;48.90
21706;BME280;11014;53.076;18.208;2023-04-29T04:25:34;100961.88;;;12.52;48.90
21706;BME280;11014;53.076;18.208;2023-04-29T04:28:25;100962.47;;;12.54;48.99
21706;BME280;11014;53.076;18.208;2023-04-29T04:31:01;100962.97;;;12.51;49.11
21706;BME280;11014;53.076;18.208;2023-04-29T04:33:30;100969.97;;;12.52;49.17
21706;BME280;11014;53.076;18.208;2023-04-29T04:35:59;100960.38;;;12.56;49.30
21706;BME280;11014;53.076;18.208;2023-04-29T04:38:27;100967.75;;;12.61;49.30
21706;BME280;11014;53.076;18.208;2023-04-29T04:40:56;100975.13;;;12.65;49.13
21706;BME280;11014;53.076;18.208;2023-04-29T04:43:33;100967.50;;;12.74;49.29
21706;BME280;11014;53.076;18.208;2023-04-29T04:46:12;100975.00;;;12.83;49.11
21706;BME280;11014;53.076;18.208;2023-04-29T04:48:51;100964.53;;;12.87;49.40
21706;BME280;11014;53.076;18.208;2023-04-29T04:51:20;100970.28;;;12.90;49.43
21706;BME280;11014;53.076;18.208;2023-04-29T04:53:49;100966.91;;;12.95;49.12
21706;BME280;11014;53.076;18.208;2023-04-29T04:56:22;100963.84;;;13.03;49.35
21706;BME280;11014;53.076;18.208;2023-04-29T04:58:51;100963.72;;;13.10;49.41
21706;BME280;11014;53.076;18.208;2023-04-29T05:01:20;100954.69;;;13.16;49.00
21706;BME280;11014;53.076;18.208;2023-04-29T05:03:49;100960.66;;;13.18;49.06
21706;BME280;11014;53.076;18.208;2023-04-29T05:06:18;100961.66;;;13.28;49.21
21706;BME280;11014;53.076;18.208;2023-04-29T05:08:48;100963.75;;;13.38;49.25
21706;BME280;11014;53.076;18.208;2023-04-29T05:11:18;100964.31;;;13.40;49.07
21706;BME280;11014;53.076;18.208;2023-04-29T05:14:00;100971.47;;;13.46;49.00
21706;BME280;11014;53.076;18.208;2023-04-29T05:16:29;100976.47;;;13.54;49.22
21706;BME280;11014;53.076;18.208;2023-04-29T05:18:58;100966.59;;;13.59;48.81
21706;BME280;11014;53.076;18.208;2023-04-29T05:21:31;100966.44;;;13.66;48.63
21706;BME280;11014;53.076;18.208;2023-04-29T05:24:01;100967.69;;;13.75;48.68
21706;BME280;11014;53.076;18.208;2023-04-29T05:26:29;100964.84;;;13.82;48.58
21706;BME280;11014;53.076;18.208;2023-04-29T05:29:01;100972.22;;;13.86;48.90
21706;BME280;11014;53.076;18.208;2023-04-29T05:31:36;100968.75;;;13.91;48.71
21706;BME280;11014;53.076;18.208;2023-04-29T05:34:05;100970.28;;;13.98;48.53
21706;BME280;11014;53.076;18.208;2023-04-29T05:36:33;100976.88;;;14.07;48.72
21706;BME280;11014;53.076;18.208;2023-04-29T05:39:02;100973.69;;;14.10;48.74
21706;BME280;11014;53.076;18.208;2023-04-29T05:41:31;100974.13;;;14.19;48.55
21706;BME280;11014;53.076;18.208;2023-04-29T05:44:20;100979.44;;;14.31;48.24
21706;BME280;11014;53.076;18.208;2023-04-29T05:46:48;100969.31;;;14.38;48.16
21706;BME280;11014;53.076;18.208;2023-04-29T05:49:19;100979.22;;;14.49;48.22
21706;BME280;11014;53.076;18.208;2023-04-29T05:51:48;100974.88;;;14.64;48.24
21706;BME280;11014;53.076;18.208;2023-04-29T05:54:17;100971.47;;;14.74;47.98
21706;BME280;11014;53.076;18.208;2023-04-29T05:56:46;100975.97;;;14.85;48.30
21706;BME280;11014;53.076;18.208;2023-04-29T05:59:15;100970.44;;;14.97;48.00
21706;BME280;11014;53.076;18.208;2023-04-29T06:01:50;100973.00;;;15.08;47.37
21706;BME280;11014;53.076;18.208;2023-04-29T06:04:18;100972.56;;;15.16;47.43
21706;BME280;11014;53.076;18.208;2023-04-29T06:07:14;100972.16;;;15.24;47.72
21706;BME280;11014;53.076;18.208;2023-04-29T06:10:05;100971.69;;;15.32;47.24
21706;BME280;11014;53.076;18.208;2023-04-29T06:12:34;100969.34;;;15.41;47.78
21706;BME280;11014;53.076;18.208;2023-04-29T06:15:03;100965.66;;;15.47;47.58
21706;BME280;11014;53.076;18.208;2023-04-29T06:17:32;100969.28;;;15.58;47.24
21706;BME280;11014;53.076;18.208;2023-04-29T06:20:00;100972.69;;;15.70;47.06
21706;BME280;11014;53.076;18.208;2023-04-29T06:22:29;100967.34;;;15.80;47.15
21706;BME280;11014;53.076;18.208;2023-04-29T06:24:59;100970.19;;;15.90;46.50
21706;BME280;11014;53.076;18.208;2023-04-29T06:27:41;100971.59;;;15.97;46.65
21706;BME280;11014;53.076;18.208;2023-04-29T06:30:10;100962.44;;;16.04;46.59
21706;BME280;11014;53.076;18.208;2023-04-29T06:32:40;100960.34;;;16.16;46.10
21706;BME280;11014;53.076;18.208;2023-04-29T06:35:09;100962.38;;;16.30;46.20
21706;BME280;11014;53.076;18.208;2023-04-29T06:37:56;100962.75;;;16.44;45.69
21706;BME280;11014;53.076;18.208;2023-04-29T06:40:47;100970.25;;;16.64;45.46
21706;BME280;11014;53.076;18.208;2023-04-29T06:43:50;100969.78;;;16.82;45.57
21706;BME280;11014;53.076;18.208;2023-04-29T06:46:38;100972.56;;;16.97;44.52
21706;BME280;11014;53.076;18.208;2023-04-29T06:49:10;100972.13;;;17.10;44.11
21706;BME280;11014;53.076;18.208;2023-04-29T06:51:39;100968.09;;;17.23;44.28
21706;BME280;11014;53.076;18.208;2023-04-29T06:54:17;100973.84;;;17.36;44.19
21706;BME280;11014;53.076;18.208;2023-04-29T06:56:46;100961.09;;;17.47;44.07
21706;BME280;11014;53.076;18.208;2023-04-29T06:59:17;100967.16;;;17.59;43.64
21706;BME280;11014;53.076;18.208;2023-04-29T07:01:46;100969.59;;;17.65;42.91
21706;BME280;11014;53.076;18.208;2023-04-29T07:04:19;100975.59;;;17.72;42.98
21706;BME280;11014;53.076;18.208;2023-04-29T07:06:48;100974.53;;;17.79;42.77
21706;BME280;11014;53.076;18.208;2023-04-29T07:09:17;100971.28;;;17.87;42.69
21706;BME280;11014;53.076;18.208;2023-04-29T07:11:45;100978.06;;;17.94;42.45
21706;BME280;11014;53.076;18.208;2023-04-29T07:14:14;100972.09;;;17.97;42.24
21706;BME280;11014;53.076;18.208;2023-04-29T07:16:43;100977.81;;;18.06;42.07
21706;BME280;11014;53.076;18.208;2023-04-29T07:19:11;100971.25;;;18.17;42.74
21706;BME280;11014;53.076;18.208;2023-04-29T07:21:40;100975.09;;;18.26;41.94
21706;BME280;11014;53.076;18.208;2023-04-29T07:24:09;100972.91;;;18.33;41.72
21706;BME280;11014;53.076;18.208;2023-04-29T07:26:38;100972.91;;;18.43;41.45
21706;BME280;11014;53.076;18.208;2023-04-29T07:29:09;100977.53;;;18.53;41.82
21706;BME280;11014;53.076;18.208;2023-04-29T07:32:04;100982.97;;;18.53;41.64
21706;BME280;11014;53.076;18.208;2023-04-29T07:35:58;100967.47;;;18.63;41.36
21706;BME280;11014;53.076;18.208;2023-04-29T07:38:33;100981.06;;;18.63;41.68
21706;BME280;11014;53.076;18.208;2023-04-29T07:41:06;100976.75;;;18.52;42.05
21706;BME280;11014;53.076;18.208;2023-04-29T07:44:19;100977.00;;;18.41;42.44
21706;BME280;11014;53.076;18.208;2023-04-29T07:46:52;100972.91;;;18.63;41.30
21706;BME280;11014;53.076;18.208;2023-04-29T07:49:24;100968.59;;;18.52;42.10
21706;BME280;11014;53.076;18.208;2023-04-29T07:51:53;100976.75;;;18.52;42.14
21706;BME280;11014;53.076;18.208;2023-04-29T07:54:22;100972.63;;;18.60;42.14
21706;BME280;11014;53.076;18.208;2023-04-29T07:56:51;100984.84;;;18.72;42.75
21706;BME280;11014;53.076;18.208;2023-04-29T07:59:20;100978.03;;;18.75;42.27
21706;BME280;11014;53.076;18.208;2023-04-29T08:01:49;100978.88;;;18.75;41.73
21706;BME280;11014;53.076;18.208;2023-04-29T08:04:23;100985.97;;;18.71;42.44
21706;BME280;11014;53.076;18.208;2023-04-29T08:07:08;100983.78;;;18.68;42.79
21706;BME280;11014;53.076;18.208;2023-04-29T08:09:37;100986.53;;;18.63;43.19
21706;BME280;11014;53.076;18.208;2023-04-29T08:12:06;100988.13;;;18.69;43.53
21706;BME280;11014;53.076;18.208;2023-04-29T08:14:35;100994.09;;;18.76;42.16
21706;BME280;11014;53.076;18.208;2023-04-29T08:17:04;100995.75;;;18.72;42.61
21706;BME280;11014;53.076;18.208;2023-04-29T08:19:36;100990.28;;;18.72;42.25
21706;BME280;11014;53.076;18.208;2023-04-29T08:22:04;100994.13;;;18.71;43.19
21706;BME280;11014;53.076;18.208;2023-04-29T08:24:33;100999.28;;;18.68;43.33
21706;BME280;11014;53.076;18.208;2023-04-29T08:27:02;101001.47;;;18.66;43.51
21706;BME280;11014;53.076;18.208;2023-04-29T08:29:31;101003.63;;;18.64;44.24
21706;BME280;11014;53.076;18.208;2023-04-29T08:32:00;101004.75;;;18.63;44.88
21706;BME280;11014;53.076;18.208;2023-04-29T08:34:29;101007.47;;;18.58;45.16
21706;BME280;11014;53.076;18.208;2023-04-29T08:36:58;101002.81;;;18.43;45.70
21706;BME280;11014;53.076;18.208;2023-04-29T08:43:04;100995.75;;;18.32;46.05
21706;BME280;11014;53.076;18.208;2023-04-29T08:45:36;101001.19;;;18.27;46.43
21706;BME280;11014;53.076;18.208;2023-04-29T08:48:11;100998.72;;;18.25;47.44
21706;BME280;11014;53.076;18.208;2023-04-29T08:50:43;101001.75;;;18.29;47.50
21706;BME280;11014;53.076;18.208;2023-04-29T08:53:15;100994.66;;;18.28;48.17
21706;BME280;11014;53.076;18.208;2023-04-29T08:55:45;101009.09;;;18.08;49.37
21706;BME280;11014;53.076;18.208;2023-04-29T08:58:33;101002.28;;;18.06;50.33
21706;BME280;11014;53.076;18.208;2023-04-29T09:01:01;101005.00;;;18.21;49.91
21706;BME280;11014;53.076;18.208;2023-04-29T09:03:39;101005.00;;;18.31;50.07
21706;BME280;11014;53.076;18.208;2023-04-29T09:06:10;101000.63;;;18.45;49.71
21706;BME280;11014;53.076;18.208;2023-04-29T09:08:41;101006.66;;;18.52;49.81
21706;BME280;11014;53.076;18.208;2023-04-29T09:11:11;101001.47;;;18.51;50.51
21706;BME280;11014;53.076;18.208;2023-04-29T09:13:40;101013.19;;;18.56;50.41
21706;BME280;11014;53.076;18.208;2023-04-29T09:16:12;101011.00;;;18.63;51.29
21706;BME280;11014;53.076;18.208;2023-04-29T09:21:25;101009.63;;;18.66;51.81
21706;BME280;11014;53.076;18.208;2023-04-29T09:23:56;101003.38;;;18.55;52.01
21706;BME280;11014;53.076;18.208;2023-04-29T09:26:25;101011.00;;;18.48;52.49
21706;BME280;11014;53.076;18.208;2023-04-29T09:29:08;101007.19;;;18.44;53.09
21706;BME280;11014;53.076;18.208;2023-04-29T09:31:39;101014.78;;;18.37;53.16
21706;BME280;11014;53.076;18.208;2023-04-29T09:34:09;101016.41;;;18.28;52.95
21706;BME280;11014;53.076;18.208;2023-04-29T09:36:47;101016.16;;;18.24;52.93
21706;BME280;11014;53.076;18.208;2023-04-29T09:39:19;101012.88;;;18.22;52.48
21706;BME280;11014;53.076;18.208;2023-04-29T09:44:26;101009.06;;;18.23;52.40
21706;BME280;11014;53.076;18.208;2023-04-29T09:46:59;101024.56;;;18.23;52.49
21706;BME280;11014;53.076;18.208;2023-04-29T09:49:38;101010.97;;;18.28;52.24
21706;BME280;11014;53.076;18.208;2023-04-29T09:52:15;101019.69;;;18.30;52.24
21706;BME280;11014;53.076;18.208;2023-04-29T09:54:51;101018.59;;;18.26;52.11
21706;BME280;11014;53.076;18.208;2023-04-29T09:57:38;101006.38;;;18.39;52.46
21706;BME280;11014;53.076;18.208;2023-04-29T10:00:13;101003.91;;;18.37;52.70
21706;BME280;11014;53.076;18.208;2023-04-29T10:02:45;101006.09;;;18.40;52.49
21706;BME280;11014;53.076;18.208;2023-04-29T10:05:16;100997.94;;;18.40;52.52
21706;BME280;11014;53.076;18.208;2023-04-29T10:07:47;100993.28;;;18.46;52.36
21706;BME280;11014;53.076;18.208;2023-04-29T10:10:17;100999.03;;;18.54;51.73
21706;BME280;11014;53.076;18.208;2023-04-29T10:12:52;100995.78;;;18.52;52.12
21706;BME280;11014;53.076;18.208;2023-04-29T10:15:38;100992.72;;;18.84;52.02
21706;BME280;11014;53.076;18.208;2023-04-29T10:18:20;100990.25;;;18.82;51.27
21706;BME280;11014;53.076;18.208;2023-04-29T10:20:49;100993.25;;;18.96;49.69
21706;BME280;11014;53.076;18.208;2023-04-29T10:23:20;100989.16;;;18.99;49.32
21706;BME280;11014;53.076;18.208;2023-04-29T10:25:51;100998.91;;;19.05;48.86
21706;BME280;11014;53.076;18.208;2023-04-29T10:28:23;100995.09;;;19.06;49.40
21706;BME280;11014;53.076;18.208;2023-04-29T10:30:53;100994.50;;;19.19;49.65
21706;BME280;11014;53.076;18.208;2023-04-29T10:33:21;100985.75;;;19.27;49.38
21706;BME280;11014;53.076;18.208;2023-04-29T10:35:54;100979.22;;;19.38;48.99
21706;BME280;11014;53.076;18.208;2023-04-29T10:38:31;100982.09;;;19.57;48.16
21706;BME280;11014;53.076;18.208;2023-04-29T10:41:10;100981.03;;;19.58;46.77
21706;BME280;11014;53.076;18.208;2023-04-29T10:43:41;100976.09;;;19.60;46.37
21706;BME280;11014;53.076;18.208;2023-04-29T10:48:45;100980.72;;;19.59;46.53
21706;BME280;11014;53.076;18.208;2023-04-29T10:51:31;100976.31;;;19.68;46.66
21706;BME280;11014;53.076;18.208;2023-04-29T10:54:06;100977.41;;;19.72;46.11
21706;BME280;11014;53.076;18.208;2023-04-29T10:56:52;100976.84;;;19.75;45.71
21706;BME280;11014;53.076;18.208;2023-04-29T11:01:57;100968.03;;;19.88;45.17
21706;BME280;11014;53.076;18.208;2023-04-29T11:04:26;100968.22;;;19.97;45.78
21706;BME280;11014;53.076;18.208;2023-04-29T11:06:56;100973.91;;;20.00;45.16
21706;BME280;11014;53.076;18.208;2023-04-29T11:09:29;100966.19;;;20.13;44.99
21706;BME280;11014;53.076;18.208;2023-04-29T11:12:02;100958.41;;;20.35;44.50
21706;BME280;11014;53.076;18.208;2023-04-29T11:14:49;100959.69;;;20.66;44.51
21706;BME280;11014;53.076;18.208;2023-04-29T11:17:22;100959.38;;;20.96;44.07
21706;BME280;11014;53.076;18.208;2023-04-29T11:19:52;100962.28;;;21.28;43.12
21706;BME280;11014;53.076;18.208;2023-04-29T11:22:29;100949.00;;;21.59;42.60
21706;BME280;11014;53.076;18.208;2023-04-29T11:25:03;100953.22;;;21.70;41.56
21706;BME280;11014;53.076;18.208;2023-04-29T11:27:34;100958.19;;;21.87;41.15
21706;BME280;11014;53.076;18.208;2023-04-29T11:30:04;100960.31;;;22.09;41.36
21706;BME280;11014;53.076;18.208;2023-04-29T11:32:38;100962.41;;;22.30;40.82
21706;BME280;11014;53.076;18.208;2023-04-29T11:35:14;100959.41;;;22.46;41.28
21706;BME280;11014;53.076;18.208;2023-04-29T11:37:44;100958.03;;;22.62;40.97
21706;BME280;11014;53.076;18.208;2023-04-29T11:40:14;100962.13;;;22.78;40.06
21706;BME280;11014;53.076;18.208;2023-04-29T11:42:45;100964.84;;;22.78;39.57
21706;BME280;11014;53.076;18.208;2023-04-29T11:45:18;100962.22;;;22.73;39.57
21706;BME280;11014;53.076;18.208;2023-04-29T11:47:47;100963.94;;;22.69;39.64
21706;BME280;11014;53.076;18.208;2023-04-29T11:50:17;100964.44;;;22.71;39.65
21706;BME280;11014;53.076;18.208;2023-04-29T11:52:48;100964.97;;;22.73;39.66
21706;BME280;11014;53.076;18.208;2023-04-29T11:55:18;100958.34;;;22.74;39.42
21706;BME280;11014;53.076;18.208;2023-04-29T11:57:48;100959.88;;;22.80;39.89
21706;BME280;11014;53.076;18.208;2023-04-29T12:00:18;100955.84;;;22.91;39.08
21706;BME280;11014;53.076;18.208;2023-04-29T12:02:47;100954.81;;;22.87;39.02
21706;BME280;11014;53.076;18.208;2023-04-29T12:05:16;100945.09;;;22.81;38.97
21706;BME280;11014;53.076;18.208;2023-04-29T12:07:48;100952.16;;;22.68;38.85
21706;BME280;11014;53.076;18.208;2023-04-29T12:10:17;100950.34;;;22.77;39.60
21706;BME280;11014;53.076;18.208;2023-04-29T12:12:46;100942.03;;;22.96;38.35
21706;BME280;11014;53.076;18.208;2023-04-29T12:15:15;100942.50;;;23.25;38.46
21706;BME280;11014;53.076;18.208;2023-04-29T12:17:44;100944.13;;;23.76;38.67
21706;BME280;11014;53.076;18.208;2023-04-29T12:20:14;100936.09;;;24.15;37.96
21706;BME280;11014;53.076;18.208;2023-04-29T12:22:42;100934.44;;;24.36;36.75
21706;BME280;11014;53.076;18.208;2023-04-29T12:25:12;100935.53;;;24.35;35.85
21706;BME280;11014;53.076;18.208;2023-04-29T12:27:40;100930.59;;;24.15;36.33
21706;BME280;11014;53.076;18.208;2023-04-29T12:30:10;100928.38;;;24.03;36.10
21706;BME280;11014;53.076;18.208;2023-04-29T12:32:39;100921.31;;;23.89;36.59
21706;BME280;11014;53.076;18.208;2023-04-29T12:35:16;100914.84;;;23.85;37.39
21706;BME280;11014;53.076;18.208;2023-04-29T12:37:49;100921.78;;;23.82;38.10
21706;BME280;11014;53.076;18.208;2023-04-29T12:40:18;100919.03;;;23.82;37.63
21706;BME280;11014;53.076;18.208;2023-04-29T12:42:48;100913.97;;;23.76;37.85
21706;BME280;11014;53.076;18.208;2023-04-29T12:45:30;100919.31;;;23.81;37.59
21706;BME280;11014;53.076;18.208;2023-04-29T12:48:00;100912.94;;;23.72;37.59
21706;BME280;11014;53.076;18.208;2023-04-29T12:50:34;100912.84;;;23.77;37.88
21706;BME280;11014;53.076;18.208;2023-04-29T12:53:05;100907.19;;;23.73;38.29
21706;BME280;11014;53.076;18.208;2023-04-29T12:55:36;100909.44;;;23.71;37.53
21706;BME280;11014;53.076;18.208;2023-04-29T12:58:05;100908.59;;;23.71;37.66
21706;BME280;11014;53.076;18.208;2023-04-29T13:00:34;100910.41;;;23.75;37.93
21706;BME280;11014;53.076;18.208;2023-04-29T13:03:05;100911.34;;;23.71;37.68
21706;BME280;11014;53.076;18.208;2023-04-29T13:05:34;100908.00;;;23.74;37.37
21706;BME280;11014;53.076;18.208;2023-04-29T13:08:03;100898.75;;;23.70;37.38
21706;BME280;11014;53.076;18.208;2023-04-29T13:10:35;100910.13;;;23.77;37.68
21706;BME280;11014;53.076;18.208;2023-04-29T13:13:04;100893.63;;;23.99;37.54
21706;BME280;11014;53.076;18.208;2023-04-29T13:15:32;100891.88;;;24.25;37.05
21706;BME280;11014;53.076;18.208;2023-04-29T13:18:01;100887.28;;;24.43;36.35
21706;BME280;11014;53.076;18.208;2023-04-29T13:20:30;100889.09;;;24.47;36.26
21706;BME280;11014;53.076;18.208;2023-04-29T13:23:00;100887.50;;;24.86;36.95
21706;BME280;11014;53.076;18.208;2023-04-29T13:25:28;100894.53;;;25.43;36.47
21706;BME280;11014;53.076;18.208;2023-04-29T13:27:57;100893.91;;;25.55;34.30